createdAt,value
2022-12-03T00:00:56.258Z,101088.38
2022-12-03T00:03:26.466Z,101089.03
2022-12-03T00:05:57.480Z,101076.94
2022-12-03T00:08:26.618Z,101079.22
2022-12-03T00:11:07.452Z,101073.41
2022-12-03T00:13:39.458Z,101071.13
2022-12-03T00:16:08.799Z,101071.63
2022-12-03T00:18:53.882Z,101059.06
2022-12-03T00:21:37.046Z,101054.72
2022-12-03T00:24:06.782Z,101047.81
2022-12-03T00:26:37.443Z,101050.69
2022-12-03T00:29:06.514Z,101054.22
2022-12-03T00:31:35.537Z,101056.66
2022-12-03T00:34:08.165Z,101048.59
2022-12-03T00:36:36.936Z,101047.16
2022-12-03T00:39:06.449Z,101045.88
2022-12-03T00:41:43.393Z,101037.31
2022-12-03T00:44:12.985Z,101045.22
2022-12-03T00:46:42.174Z,101033.47
2022-12-03T00:49:16.923Z,101034.25
2022-12-03T00:51:51.928Z,101033.75
2022-12-03T00:54:20.960Z,101038.91
2022-12-03T00:56:50.006Z,101033.72
2022-12-03T00:59:27.133Z,101025.22
2022-12-03T01:02:00.284Z,101032.44
2022-12-03T01:04:29.441Z,101040.69
2022-12-03T01:07:01.669Z,101044.09
2022-12-03T01:09:30.682Z,101043.56
2022-12-03T01:11:59.519Z,101040.38
2022-12-03T01:14:28.849Z,101047.31
2022-12-03T01:16:57.641Z,101049.72
2022-12-03T01:19:36.138Z,101046.81
2022-12-03T01:22:05.373Z,101042.94
2022-12-03T01:24:35.695Z,101055.19
2022-12-03T01:27:04.777Z,101060.19
2022-12-03T01:29:33.534Z,101049.56
2022-12-03T01:32:17.581Z,101057.75
2022-12-03T01:34:52.311Z,101053.09
2022-12-03T01:37:23.504Z,101046.19
2022-12-03T01:39:52.412Z,101047.28
2022-12-03T01:42:34.649Z,101038.44
2022-12-03T01:45:04.937Z,101041.97
2022-12-03T01:47:37.981Z,101055.03
2022-12-03T01:50:22.076Z,101051.31
2022-12-03T01:52:53.776Z,101047.94
2022-12-03T01:55:26.249Z,101034.91
2022-12-03T01:58:01.805Z,101042.97
2022-12-03T02:00:31.236Z,101042.97
2022-12-03T02:03:08.380Z,101046.50
2022-12-03T02:05:38.915Z,101043.75
2022-12-03T02:08:36.909Z,101034.44
2022-12-03T02:11:11.201Z,101052.63
2022-12-03T02:13:40.165Z,101056.66
2022-12-03T02:16:09.773Z,101057.16
2022-12-03T02:18:38.797Z,101048.75
2022-12-03T02:21:27.805Z,101051.34
2022-12-03T02:24:10.535Z,101047.47
2022-12-03T02:26:39.397Z,101041.66
2022-12-03T02:29:08.241Z,101041.19
2022-12-03T02:31:37.538Z,101046.34
2022-12-03T02:34:10.146Z,101045.06
2022-12-03T02:36:40.231Z,101055.38
2022-12-03T02:39:10.040Z,101057.44
2022-12-03T02:41:57.161Z,101060.34
2022-12-03T02:44:26.007Z,101064.84
2022-12-03T02:46:57.370Z,101062.28
2022-12-03T02:49:26.371Z,101050.03
2022-12-03T02:51:55.305Z,101057.78
2022-12-03T02:54:24.557Z,101059.56
2022-12-03T02:56:53.407Z,101050.69
2022-12-03T02:59:25.347Z,101052.63
2022-12-03T03:01:54.251Z,101056.81
2022-12-03T03:04:25.569Z,101056.16
2022-12-03T03:06:54.494Z,101064.53
2022-12-03T03:09:24.175Z,101063.91
2022-12-03T03:12:24.218Z,101065.66
2022-12-03T03:15:01.444Z,101071.28
2022-12-03T03:17:33.751Z,101072.59
2022-12-03T03:20:03.495Z,101072.75
2022-12-03T03:22:42.434Z,101081.13
2022-12-03T03:25:16.181Z,101084.97
2022-12-03T03:27:46.588Z,101087.41
2022-12-03T03:30:18.971Z,101083.56
2022-12-03T03:32:47.879Z,101077.28
2022-12-03T03:35:18.699Z,101085.16
2022-12-03T03:37:47.960Z,101095.31
2022-12-03T03:40:17.717Z,101085.63
2022-12-03T03:42:46.570Z,101099.66
2022-12-03T03:45:16.357Z,101092.25
2022-12-03T03:47:46.014Z,101103.81
2022-12-03T03:50:15.633Z,101105.94
2022-12-03T03:52:44.878Z,101110.28
2022-12-03T03:55:14.334Z,101111.09
2022-12-03T03:57:43.645Z,101104.47
2022-12-03T04:00:13.092Z,101108.34
2022-12-03T04:02:42.838Z,101103.53
2022-12-03T04:05:19.212Z,101101.88
2022-12-03T04:07:48.527Z,101101.59
2022-12-03T04:10:36.055Z,101103.53
2022-12-03T04:13:06.238Z,101106.75
2022-12-03T04:15:35.331Z,101109.94
2022-12-03T04:18:22.888Z,101110.59
2022-12-03T04:20:51.845Z,101106.56
2022-12-03T04:23:20.577Z,101105.41
2022-12-03T04:26:07.852Z,101103.81
2022-12-03T04:28:52.082Z,101103.00
2022-12-03T04:31:39.289Z,101096.06
2022-12-03T04:34:32.380Z,101095.31
2022-12-03T04:37:01.334Z,101093.84
2022-12-03T04:39:30.448Z,101091.91
2022-12-03T04:42:03.969Z,101109.00
2022-12-03T04:44:39.047Z,101114.47
2022-12-03T04:47:09.536Z,101128.00
2022-12-03T04:49:41.496Z,101123.31
2022-12-03T04:52:12.246Z,101128.94
2022-12-03T04:54:42.205Z,101128.78
2022-12-03T04:57:11.865Z,101116.09
2022-12-03T04:59:41.190Z,101123.78
2022-12-03T05:02:10.815Z,101117.97
2022-12-03T05:04:39.786Z,101117.69
2022-12-03T05:09:53.888Z,101122.84
2022-12-03T05:12:22.705Z,101134.44
2022-12-03T05:14:52.002Z,101119.78
2022-12-03T05:17:21.250Z,101115.09
2022-12-03T05:20:08.416Z,101112.22
2022-12-03T05:22:37.013Z,101113.19
2022-12-03T05:25:06.259Z,101114.78
2022-12-03T05:27:35.520Z,101113.50
2022-12-03T05:30:05.115Z,101111.56
2022-12-03T05:32:33.972Z,101110.59
2022-12-03T05:35:02.705Z,101112.69
2022-12-03T05:37:31.601Z,101120.59
2022-12-03T05:40:03.536Z,101118.66
2022-12-03T05:42:53.541Z,101126.69
2022-12-03T05:45:27.965Z,101110.84
2022-12-03T05:47:58.375Z,101119.22
2022-12-03T05:50:30.199Z,101108.25
2022-12-03T05:52:59.837Z,101097.56
2022-12-03T05:55:29.559Z,101089.22
2022-12-03T05:57:58.753Z,101086.63
2022-12-03T06:00:42.770Z,101086.91
2022-12-03T06:03:12.323Z,101082.69
2022-12-03T06:05:41.140Z,101089.44
2022-12-03T06:08:10.013Z,101082.91
2022-12-03T06:10:38.848Z,101085.88
2022-12-03T06:13:07.646Z,101071.75
2022-12-03T06:15:41.924Z,101070.34
2022-12-03T06:18:12.908Z,101064.72
2022-12-03T06:20:41.873Z,101067.78
2022-12-03T06:23:10.725Z,101060.69
2022-12-03T06:25:39.636Z,101055.41
2022-12-03T06:28:09.583Z,101060.53
2022-12-03T06:30:38.532Z,101056.69
2022-12-03T06:33:07.280Z,101054.50
2022-12-03T06:35:41.991Z,101056.69
2022-12-03T06:38:10.896Z,101050.56
2022-12-03T06:40:40.087Z,101052.81
2022-12-03T06:43:08.935Z,101051.53
2022-12-03T06:45:37.803Z,101042.41
2022-12-03T06:48:09.555Z,101038.13
2022-12-03T06:50:38.331Z,101052.88
2022-12-03T06:53:07.148Z,101041.09
2022-12-03T06:55:35.881Z,101053.78
2022-12-03T06:58:04.729Z,101048.16
2022-12-03T07:00:33.487Z,101062.66
2022-12-03T07:03:02.527Z,101055.03
2022-12-03T07:05:31.423Z,101060.44
2022-12-03T07:08:01.811Z,101066.84
2022-12-03T07:10:30.825Z,101059.16
2022-12-03T07:12:59.896Z,101061.13
2022-12-03T07:15:28.992Z,101057.06
2022-12-03T07:17:57.770Z,101069.75
2022-12-03T07:20:26.657Z,101070.72
2022-12-03T07:22:55.425Z,101065.97
2022-12-03T07:25:27.942Z,101077.19
2022-12-03T07:27:57.142Z,101066.06
2022-12-03T07:30:26.469Z,101074.56
2022-12-03T07:32:55.537Z,101080.41
2022-12-03T07:35:24.317Z,101075.81
2022-12-03T07:37:57.397Z,101076.81
2022-12-03T07:40:26.361Z,101082.88
2022-12-03T07:42:55.342Z,101090.25
2022-12-03T07:45:24.161Z,101086.63
2022-12-03T07:47:53.423Z,101092.66
2022-12-03T07:50:22.220Z,101098.91
2022-12-03T07:52:51.001Z,101089.59
2022-12-03T07:55:19.804Z,101097.84
2022-12-03T07:57:48.660Z,101085.63
2022-12-03T08:00:18.107Z,101093.75
2022-12-03T08:02:47.376Z,101085.06
2022-12-03T08:05:16.189Z,101087.47
2022-12-03T08:07:45.119Z,101087.06
2022-12-03T08:10:14.039Z,101089.75
2022-12-03T08:12:42.904Z,101090.34
2022-12-03T08:15:14.567Z,101078.25
2022-12-03T08:17:44.382Z,101089.50
2022-12-03T08:20:25.415Z,101079.22
2022-12-03T08:22:55.765Z,101083.94
2022-12-03T08:25:30.648Z,101081.47
2022-12-03T08:28:24.942Z,101082.91
2022-12-03T08:31:04.387Z,101082.44
2022-12-03T08:33:38.305Z,101088.91
2022-12-03T08:36:12.680Z,101085.69
2022-12-03T08:38:44.468Z,101083.69
2022-12-03T08:41:37.144Z,101090.78
2022-12-03T08:44:21.217Z,101091.88
2022-12-03T08:46:56.708Z,101080.66
2022-12-03T08:49:25.622Z,101078.25
2022-12-03T08:52:01.767Z,101079.22
2022-12-03T08:54:30.990Z,101073.91
2022-12-03T08:57:03.141Z,101090.78
2022-12-03T08:59:42.672Z,101076.25
2022-12-03T09:02:27.620Z,101073.91
2022-12-03T09:05:03.118Z,101084.28
2022-12-03T09:07:32.055Z,101088.78
2022-12-03T09:10:04.777Z,101083.81
2022-12-03T09:12:36.496Z,101094.63
2022-12-03T09:15:05.926Z,101096.22
2022-12-03T09:17:35.050Z,101096.66
2022-12-03T09:20:04.888Z,101103.34
2022-12-03T09:22:33.670Z,101105.13
2022-12-03T09:25:02.775Z,101094.72
2022-12-03T09:27:31.588Z,101097.34
2022-12-03T09:30:00.362Z,101097.84
2022-12-03T09:32:29.310Z,101098.16
2022-12-03T09:34:58.393Z,101090.16
2022-12-03T09:37:27.193Z,101107.16
2022-12-03T09:39:56.139Z,101094.47
2022-12-03T09:42:37.082Z,101103.28
2022-12-03T09:45:13.752Z,101114.59
2022-12-03T09:47:47.530Z,101106.19
2022-12-03T09:50:22.570Z,101104.41
2022-12-03T09:52:55.570Z,101099.59
2022-12-03T09:55:27.958Z,101107.97
2022-12-03T09:57:58.096Z,101095.81
2022-12-03T10:00:31.203Z,101099.59
2022-12-03T10:03:03.797Z,101092.38
2022-12-03T10:05:32.961Z,101100.88
2022-12-03T10:08:07.720Z,101108.75
2022-12-03T10:10:38.690Z,101116.06
2022-12-03T10:13:11.682Z,101116.44
2022-12-03T10:15:40.813Z,101132.19
2022-12-03T10:18:19.787Z,101119.28
2022-12-03T10:20:49.237Z,101119.66
2022-12-03T10:23:36.126Z,101126.75
2022-12-03T10:26:05.149Z,101125.94
2022-12-03T10:28:36.984Z,101132.81
2022-12-03T10:31:08.752Z,101136.66
2022-12-03T10:33:46.281Z,101140.88
2022-12-03T10:36:18.057Z,101139.03
2022-12-03T10:38:47.330Z,101138.16
2022-12-03T10:41:28.065Z,101135.19
2022-12-03T10:44:34.569Z,101141.66
2022-12-03T10:47:10.434Z,101144.00
2022-12-03T10:49:40.994Z,101141.44
2022-12-03T10:52:26.216Z,101139.16
2022-12-03T10:54:55.497Z,101135.19
2022-12-03T10:57:24.908Z,101143.88
2022-12-03T10:59:53.835Z,101138.63
2022-12-03T11:02:25.370Z,101151.25
2022-12-03T11:04:55.241Z,101143.75
2022-12-03T11:07:25.833Z,101130.09
2022-12-03T11:09:59.593Z,101138.78
2022-12-03T11:12:39.790Z,101138.38
2022-12-03T11:15:16.383Z,101126.66
2022-12-03T11:17:54.055Z,101132.72
2022-12-03T11:20:25.886Z,101129.31
2022-12-03T11:22:56.538Z,101128.94
2022-12-03T11:25:28.213Z,101125.84
2022-12-03T11:28:15.898Z,101131.97
2022-12-03T11:30:51.614Z,101134.53
2022-12-03T11:33:28.043Z,101142.16
2022-12-03T11:36:06.350Z,101135.81
2022-12-03T11:38:38.444Z,101118.13
2022-12-03T11:41:22.185Z,101133.47
2022-12-03T11:43:54.074Z,101137.94
2022-12-03T11:46:39.751Z,101137.44
2022-12-03T11:49:38.516Z,101132.47
2022-12-03T11:52:25.926Z,101137.13
2022-12-03T11:55:15.106Z,101141.97
2022-12-03T11:57:44.404Z,101141.53
2022-12-03T12:00:21.176Z,101133.97
2022-12-03T12:02:51.795Z,101132.72
2022-12-03T12:05:27.682Z,101127.56
2022-12-03T12:07:57.668Z,101124.53
2022-12-03T12:10:45.857Z,101132.22
2022-12-03T12:13:36.136Z,101124.34
2022-12-03T12:16:12.140Z,101135.84
2022-12-03T12:18:45.028Z,101138.56
2022-12-03T12:21:48.901Z,101132.47
2022-12-03T12:24:41.267Z,101139.31
2022-12-03T12:27:22.748Z,101147.09
2022-12-03T12:30:01.163Z,101144.50
2022-12-03T12:32:51.781Z,101141.28
2022-12-03T12:35:28.998Z,101139.44
2022-12-03T12:38:07.421Z,101141.63
2022-12-03T12:40:38.627Z,101139.47
2022-12-03T12:43:24.259Z,101138.03
2022-12-03T12:46:13.844Z,101138.41
2022-12-03T12:48:57.908Z,101138.41
2022-12-03T12:51:29.091Z,101139.44
2022-12-03T12:53:58.820Z,101144.25
2022-12-03T12:56:33.426Z,101142.66
2022-12-03T12:59:18.696Z,101148.16
2022-12-03T13:01:50.006Z,101160.50
2022-12-03T13:04:25.853Z,101159.63
2022-12-03T13:06:55.333Z,101164.00
2022-12-03T13:09:26.407Z,101158.41
2022-12-03T13:11:59.116Z,101159.03
2022-12-03T13:14:33.173Z,101157.31
2022-12-03T13:17:08.332Z,101161.78
2022-12-03T13:19:46.893Z,101147.47
2022-12-03T13:22:23.630Z,101141.63
2022-12-03T13:24:55.503Z,101133.84
2022-12-03T13:27:33.505Z,101135.13
2022-12-03T13:30:10.354Z,101134.84
2022-12-03T13:32:40.165Z,101147.41
2022-12-03T13:35:27.760Z,101146.34
2022-12-03T13:37:56.642Z,101138.16
2022-12-03T13:40:28.040Z,101146.94
2022-12-03T13:43:03.508Z,101145.34
2022-12-03T13:45:44.980Z,101151.25
2022-12-03T13:48:22.494Z,101155.03
2022-12-03T13:50:58.765Z,101146.16
2022-12-03T13:53:37.892Z,101154.66
2022-12-03T13:56:26.778Z,101148.06
2022-12-03T13:58:58.129Z,101155.63
2022-12-03T14:01:28.361Z,101153.53
2022-12-03T14:03:57.808Z,101157.28
2022-12-03T14:06:27.044Z,101159.06
2022-12-03T14:08:59.123Z,101160.50
2022-12-03T14:11:46.380Z,101141.69
2022-12-03T14:14:14.907Z,101146.16
2022-12-03T14:16:43.822Z,101141.84
2022-12-03T14:19:13.038Z,101146.50
2022-12-03T14:21:42.121Z,101140.50
2022-12-03T14:24:11.171Z,101142.97
2022-12-03T14:26:40.026Z,101140.88
2022-12-03T14:29:09.208Z,101139.59
2022-12-03T14:31:37.997Z,101135.78
2022-12-03T14:34:09.575Z,101139.69
2022-12-03T14:36:38.501Z,101133.09
2022-12-03T14:39:07.461Z,101138.09
2022-12-03T14:41:54.708Z,101131.63
2022-12-03T14:44:24.347Z,101128.41
2022-12-03T14:46:57.025Z,101136.75
2022-12-03T14:49:27.249Z,101135.00
2022-12-03T14:51:56.039Z,101141.06
2022-12-03T14:54:25.276Z,101139.34
2022-12-03T14:56:54.313Z,101136.38
2022-12-03T14:59:27.682Z,101125.09
2022-12-03T15:01:57.382Z,101133.50
2022-12-03T15:04:26.837Z,101132.25
2022-12-03T15:06:56.843Z,101135.47
2022-12-03T15:09:25.797Z,101134.50
2022-12-03T15:11:54.997Z,101130.28
2022-12-03T15:14:24.051Z,101139.59
2022-12-03T15:16:52.931Z,101135.75
2022-12-03T15:19:21.921Z,101145.16
2022-12-03T15:21:51.050Z,101141.69
2022-12-03T15:24:20.003Z,101139.06
2022-12-03T15:26:50.236Z,101143.56
2022-12-03T15:29:20.072Z,101142.91
2022-12-03T15:31:49.749Z,101155.81
2022-12-03T15:34:22.506Z,101160.31
2022-12-03T15:36:52.230Z,101169.56
2022-12-03T15:39:21.063Z,101174.09
2022-12-03T15:41:50.056Z,101163.38
2022-12-03T15:44:18.918Z,101166.13
2022-12-03T15:46:47.850Z,101171.41
2022-12-03T15:49:16.658Z,101169.28
2022-12-03T15:51:45.530Z,101173.84
2022-12-03T15:54:14.467Z,101165.50
2022-12-03T15:56:43.780Z,101170.97
2022-12-03T15:59:14.396Z,101165.16
2022-12-03T16:01:43.475Z,101174.09
2022-12-03T16:04:12.393Z,101183.31
2022-12-03T16:06:41.227Z,101186.38
2022-12-03T16:09:10.079Z,101197.03
2022-12-03T16:11:38.904Z,101198.03
2022-12-03T16:14:07.929Z,101209.47
2022-12-03T16:16:37.082Z,101220.41
2022-12-03T16:19:09.145Z,101227.63
2022-12-03T16:21:38.043Z,101237.47
2022-12-03T16:24:07.681Z,101239.56
2022-12-03T16:26:36.645Z,101238.75
2022-12-03T16:29:05.543Z,101236.66
2022-12-03T16:31:34.508Z,101245.38
2022-12-03T16:34:03.383Z,101249.25
2022-12-03T16:36:32.412Z,101248.59
2022-12-03T16:39:01.365Z,101256.44
2022-12-03T16:41:30.545Z,101260.03
2022-12-03T16:44:00.286Z,101255.69
2022-12-03T16:46:29.265Z,101265.84
2022-12-03T16:48:59.169Z,101266.00
2022-12-03T16:51:29.389Z,101263.13
2022-12-03T16:53:58.319Z,101272.47
2022-12-03T16:56:27.148Z,101277.94
2022-12-03T16:58:56.213Z,101274.84
2022-12-03T17:01:25.028Z,101290.34
2022-12-03T17:03:54.079Z,101286.19
2022-12-03T17:06:38.641Z,101282.00
2022-12-03T17:09:07.565Z,101290.06
2022-12-03T17:11:36.468Z,101283.47
2022-12-03T17:14:05.372Z,101295.69
2022-12-03T17:16:34.325Z,101298.28
2022-12-03T17:19:06.153Z,101300.41
2022-12-03T17:21:36.291Z,101298.28
2022-12-03T17:24:05.319Z,101299.44
2022-12-03T17:26:34.375Z,101297.53
2022-12-03T17:29:04.161Z,101302.22
2022-12-03T17:31:36.984Z,101303.66
2022-12-03T17:34:09.205Z,101319.59
2022-12-03T17:36:37.965Z,101319.97
2022-12-03T17:39:06.812Z,101320.78
2022-12-03T17:41:35.578Z,101320.31
2022-12-03T17:44:09.640Z,101320.25
2022-12-03T17:46:39.940Z,101332.03
2022-12-03T17:49:08.956Z,101329.50
2022-12-03T17:51:37.782Z,101332.25
2022-12-03T17:54:07.168Z,101336.16
2022-12-03T17:56:40.204Z,101351.50
2022-12-03T17:59:10.588Z,101364.41
2022-12-03T18:01:40.291Z,101365.94
2022-12-03T18:04:11.210Z,101368.63
2022-12-03T18:06:40.489Z,101364.75
2022-12-03T18:09:09.814Z,101362.78
2022-12-03T18:11:39.012Z,101367.25
2022-12-03T18:14:07.975Z,101375.38
2022-12-03T18:16:37.294Z,101369.91
2022-12-03T18:19:06.697Z,101376.84
2022-12-03T18:21:36.418Z,101384.28
2022-12-03T18:24:06.160Z,101386.25
2022-12-03T18:26:36.495Z,101395.13
2022-12-03T18:29:05.712Z,101398.50
2022-12-03T18:31:34.919Z,101396.59
2022-12-03T18:34:04.041Z,101399.81
2022-12-03T18:36:36.909Z,101398.22
2022-12-03T18:39:10.629Z,101405.97
2022-12-03T18:41:42.697Z,101410.13
2022-12-03T18:44:12.651Z,101436.28
2022-12-03T18:46:53.541Z,101435.63
2022-12-03T18:49:24.296Z,101451.25
2022-12-03T18:51:58.916Z,101454.31
2022-12-03T18:54:28.559Z,101448.31
2022-12-03T18:56:57.545Z,101453.38
2022-12-03T18:59:26.843Z,101456.13
2022-12-03T19:01:55.832Z,101456.72
2022-12-03T19:04:28.320Z,101453.41
2022-12-03T19:06:57.515Z,101456.53
2022-12-03T19:09:27.549Z,101454.25
2022-12-03T19:11:57.074Z,101463.56
2022-12-03T19:14:26.222Z,101454.69
2022-12-03T19:16:55.667Z,101448.66
2022-12-03T19:19:28.278Z,101455.66
2022-12-03T19:21:58.284Z,101455.25
2022-12-03T19:24:27.679Z,101466.78
2022-12-03T19:27:03.596Z,101472.84
2022-12-03T19:29:32.775Z,101468.13
2022-12-03T19:32:05.116Z,101469.00
2022-12-03T19:34:34.319Z,101466.34
2022-12-03T19:37:04.666Z,101470.28
2022-12-03T19:39:34.138Z,101464.94
2022-12-03T19:42:03.597Z,101470.47
2022-12-03T19:44:32.671Z,101457.00
2022-12-03T19:47:02.723Z,101460.44
2022-12-03T19:49:32.427Z,101462.53
2022-12-03T19:52:04.559Z,101455.63
2022-12-03T19:54:33.609Z,101460.44
2022-12-03T19:57:02.442Z,101472.25
2022-12-03T19:59:31.802Z,101453.34
2022-12-03T20:02:00.992Z,101465.94
2022-12-03T20:04:30.229Z,101458.88
2022-12-03T20:06:59.225Z,101445.53
2022-12-03T20:09:28.387Z,101461.38
2022-12-03T20:11:59.927Z,101458.63
2022-12-03T20:14:29.087Z,101463.69
2022-12-03T20:16:57.886Z,101457.91
2022-12-03T20:19:29.648Z,101455.72
2022-12-03T20:22:02.518Z,101453.00
2022-12-03T20:24:41.006Z,101442.78
2022-12-03T20:27:10.104Z,101451.84
2022-12-03T20:29:38.878Z,101445.47
2022-12-03T20:32:32.719Z,101453.53
2022-12-03T20:35:07.857Z,101455.28
2022-12-03T20:37:40.022Z,101450.25
2022-12-03T20:40:09.801Z,101462.72
2022-12-03T20:42:38.755Z,101458.00
2022-12-03T20:45:08.667Z,101456.41
2022-12-03T20:47:47.189Z,101454.97
2022-12-03T20:50:26.070Z,101459.31
2022-12-03T20:53:16.638Z,101459.28
2022-12-03T20:55:49.715Z,101458.13
2022-12-03T20:58:18.836Z,101450.31
2022-12-03T21:00:51.217Z,101454.06
2022-12-03T21:03:27.589Z,101460.91
2022-12-03T21:06:02.320Z,101461.59
2022-12-03T21:08:45.600Z,101467.47
2022-12-03T21:11:35.395Z,101464.75
2022-12-03T21:14:05.672Z,101456.22
2022-12-03T21:17:09.729Z,101461.22
2022-12-03T21:19:43.185Z,101462.19
2022-12-03T21:22:16.329Z,101465.84
2022-12-03T21:24:45.507Z,101458.50
2022-12-03T21:27:23.718Z,101458.97
2022-12-03T21:29:56.025Z,101466.97
2022-12-03T21:32:25.455Z,101455.72
2022-12-03T21:34:54.334Z,101464.28
2022-12-03T21:37:24.817Z,101454.19
2022-12-03T21:39:54.009Z,101458.00
2022-12-03T21:42:36.806Z,101454.19
2022-12-03T21:45:31.380Z,101456.19
2022-12-03T21:48:05.514Z,101449.34
2022-12-03T21:50:37.193Z,101452.91
2022-12-03T21:56:33.986Z,101447.00
2022-12-03T21:59:03.203Z,101448.13
2022-12-03T22:01:32.862Z,101445.09
2022-12-03T22:04:02.240Z,101441.53
2022-12-03T22:06:31.516Z,101444.56
2022-12-03T22:09:00.733Z,101449.38
2022-12-03T22:11:32.968Z,101439.34
2022-12-03T22:14:05.618Z,101435.63
2022-12-03T22:16:37.555Z,101435.44
2022-12-03T22:19:06.884Z,101425.97
2022-12-03T22:21:36.435Z,101417.91
2022-12-03T22:24:07.593Z,101421.16
2022-12-03T22:26:39.844Z,101425.63
2022-12-03T22:29:14.712Z,101418.81
2022-12-03T22:31:43.757Z,101423.88
2022-12-03T22:36:56.490Z,101418.78
2022-12-03T22:39:25.456Z,101425.84
2022-12-03T22:41:54.675Z,101434.13
2022-12-03T22:44:23.853Z,101429.97
2022-12-03T22:46:52.834Z,101423.84
2022-12-03T22:49:21.859Z,101425.09
2022-12-03T22:51:53.267Z,101426.16
2022-12-03T22:54:24.167Z,101428.56
2022-12-03T22:56:55.185Z,101436.75
2022-12-03T22:59:24.137Z,101434.69
2022-12-03T23:01:53.578Z,101438.16
2022-12-03T23:04:22.615Z,101454.03
2022-12-03T23:06:52.209Z,101449.34
2022-12-03T23:09:21.791Z,101442.47
2022-12-03T23:11:50.916Z,101448.66
2022-12-03T23:14:20.534Z,101446.56
2022-12-03T23:16:49.402Z,101448.25
2022-12-03T23:19:20.954Z,101448.16
2022-12-03T23:21:50.279Z,101449.53
2022-12-03T23:24:19.140Z,101442.72
2022-12-03T23:26:48.594Z,101446.38
2022-12-03T23:29:17.549Z,101441.16
2022-12-03T23:31:47.026Z,101449.88
2022-12-03T23:34:16.079Z,101445.41
2022-12-03T23:36:45.185Z,101444.72
2022-12-03T23:39:14.382Z,101445.75
2022-12-03T23:41:43.467Z,101447.69
2022-12-03T23:44:17.903Z,101448.44
2022-12-03T23:46:47.055Z,101442.50
2022-12-03T23:49:16.183Z,101451.91
2022-12-03T23:51:45.290Z,101449.34
2022-12-03T23:54:14.148Z,101448.13
2022-12-03T23:56:43.391Z,101454.69
2022-12-03T23:59:12.869Z,101450.38
